sensor_id;sensor_type;location;lat;lon;timestamp;pressure;altitude;pressure_sealevel;temperature;humidity
21956;BME280;11142;49.930;8.606;2023-02-23T00:00:40;99731.75;;;12.61;100.00
21956;BME280;11142;49.930;8.606;2023-02-23T00:03:10;99727.25;;;12.52;100.00
21956;BME280;11142;49.930;8.606;2023-02-23T00:05:38;99731.97;;;12.36;100.00
21956;BME280;11142;49.930;8.606;2023-02-23T00:08:09;99727.94;;;12.32;100.00
21956;BME280;11142;49.930;8.606;2023-02-23T00:10:37;99726.28;;;12.31;100.00
21956;BME280;11142;49.930;8.606;2023-02-23T00:13:05;99728.78;;;12.33;100.00
21956;BME280;11142;49.930;8.606;2023-02-23T00:15:34;99723.22;;;12.26;100.00
21956;BME280;11142;49.930;8.606;2023-02-23T00:18:02;99723.69;;;12.20;100.00
21956;BME280;11142;49.930;8.606;2023-02-23T00:20:31;99727.59;;;12.25;100.00
21956;BME280;11142;49.930;8.606;2023-02-23T00:23:00;99729.94;;;12.17;100.00
21956;BME280;11142;49.930;8.606;2023-02-23T00:25:31;99726.16;;;12.21;100.00
21956;BME280;11142;49.930;8.606;2023-02-23T00:27:59;99724.97;;;12.25;100.00
21956;BME280;11142;49.930;8.606;2023-02-23T00:30:27;99726.19;;;12.33;100.00
21956;BME280;11142;49.930;8.606;2023-02-23T00:32:56;99729.84;;;12.52;100.00
21956;BME280;11142;49.930;8.606;2023-02-23T00:35:24;99733.25;;;12.53;100.00
21956;BME280;11142;49.930;8.606;2023-02-23T00:37:55;99734.94;;;12.65;100.00
21956;BME280;11142;49.930;8.606;2023-02-23T00:40:23;99724.91;;;12.49;100.00
21956;BME280;11142;49.930;8.606;2023-02-23T00:42:52;99729.25;;;12.60;100.00
21956;BME280;11142;49.930;8.606;2023-02-23T00:45:21;99727.81;;;12.34;100.00
21956;BME280;11142;49.930;8.606;2023-02-23T00:47:48;99717.31;;;12.35;100.00
21956;BME280;11142;49.930;8.606;2023-02-23T00:50:17;99725.44;;;12.31;100.00
21956;BME280;11142;49.930;8.606;2023-02-23T00:52:45;99729.00;;;12.30;100.00
21956;BME280;11142;49.930;8.606;2023-02-23T00:55:13;99723.31;;;12.24;100.00
21956;BME280;11142;49.930;8.606;2023-02-23T00:57:41;99724.16;;;12.14;100.00
21956;BME280;11142;49.930;8.606;2023-02-23T01:00:11;99731.44;;;12.09;100.00
21956;BME280;11142;49.930;8.606;2023-02-23T01:02:44;99721.72;;;11.89;100.00
21956;BME280;11142;49.930;8.606;2023-02-23T01:05:12;99727.00;;;11.76;100.00
21956;BME280;11142;49.930;8.606;2023-02-23T01:07:40;99726.22;;;11.63;100.00
21956;BME280;11142;49.930;8.606;2023-02-23T01:10:10;99724.31;;;11.65;100.00
21956;BME280;11142;49.930;8.606;2023-02-23T01:12:47;99719.25;;;11.63;100.00
21956;BME280;11142;49.930;8.606;2023-02-23T01:15:17;99717.38;;;11.65;100.00
21956;BME280;11142;49.930;8.606;2023-02-23T01:17:46;99718.63;;;11.84;100.00
21956;BME280;11142;49.930;8.606;2023-02-23T01:20:15;99720.06;;;11.88;100.00
21956;BME280;11142;49.930;8.606;2023-02-23T01:22:46;99724.06;;;11.81;100.00
21956;BME280;11142;49.930;8.606;2023-02-23T01:25:14;99716.22;;;11.69;100.00
21956;BME280;11142;49.930;8.606;2023-02-23T01:27:46;99707.91;;;11.64;100.00
21956;BME280;11142;49.930;8.606;2023-02-23T01:30:14;99705.19;;;11.66;100.00
21956;BME280;11142;49.930;8.606;2023-02-23T01:32:43;99710.19;;;11.69;100.00
21956;BME280;11142;49.930;8.606;2023-02-23T01:35:12;99709.09;;;11.60;100.00
21956;BME280;11142;49.930;8.606;2023-02-23T01:37:40;99713.69;;;11.57;100.00
21956;BME280;11142;49.930;8.606;2023-02-23T01:40:11;99711.34;;;11.65;100.00
21956;BME280;11142;49.930;8.606;2023-02-23T01:42:41;99703.22;;;11.69;100.00
21956;BME280;11142;49.930;8.606;2023-02-23T01:45:17;99709.16;;;11.71;100.00
21956;BME280;11142;49.930;8.606;2023-02-23T01:47:51;99706.00;;;11.79;100.00
21956;BME280;11142;49.930;8.606;2023-02-23T01:50:20;99705.06;;;11.67;100.00
21956;BME280;11142;49.930;8.606;2023-02-23T01:52:49;99701.03;;;11.76;100.00
21956;BME280;11142;49.930;8.606;2023-02-23T01:55:21;99702.31;;;11.82;100.00
21956;BME280;11142;49.930;8.606;2023-02-23T01:57:52;99711.81;;;11.94;100.00
21956;BME280;11142;49.930;8.606;2023-02-23T02:00:21;99702.69;;;11.88;100.00
21956;BME280;11142;49.930;8.606;2023-02-23T02:02:53;99700.09;;;11.99;100.00
21956;BME280;11142;49.930;8.606;2023-02-23T02:05:21;99707.06;;;11.99;100.00
21956;BME280;11142;49.930;8.606;2023-02-23T02:07:50;99701.63;;;12.02;100.00
21956;BME280;11142;49.930;8.606;2023-02-23T02:10:25;99702.84;;;12.09;100.00
21956;BME280;11142;49.930;8.606;2023-02-23T02:13:18;99703.91;;;12.06;100.00
21956;BME280;11142;49.930;8.606;2023-02-23T02:16:10;99698.84;;;12.05;100.00
21956;BME280;11142;49.930;8.606;2023-02-23T02:18:46;99702.59;;;12.01;100.00
21956;BME280;11142;49.930;8.606;2023-02-23T02:21:25;99693.41;;;12.08;100.00
21956;BME280;11142;49.930;8.606;2023-02-23T02:26:50;99687.97;;;12.11;100.00
21956;BME280;11142;49.930;8.606;2023-02-23T02:32:27;99691.03;;;12.05;100.00
21956;BME280;11142;49.930;8.606;2023-02-23T02:37:55;99687.22;;;12.09;100.00
21956;BME280;11142;49.930;8.606;2023-02-23T02:40:29;99692.09;;;12.13;100.00
21956;BME280;11142;49.930;8.606;2023-02-23T02:43:00;99683.22;;;12.16;100.00
21956;BME280;11142;49.930;8.606;2023-02-23T02:45:41;99687.50;;;12.17;100.00
21956;BME280;11142;49.930;8.606;2023-02-23T02:48:22;99678.84;;;12.27;100.00
21956;BME280;11142;49.930;8.606;2023-02-23T02:50:53;99680.66;;;12.27;100.00
21956;BME280;11142;49.930;8.606;2023-02-23T02:53:25;99682.66;;;12.35;100.00
21956;BME280;11142;49.930;8.606;2023-02-23T02:55:55;99681.22;;;12.42;100.00
21956;BME280;11142;49.930;8.606;2023-02-23T02:58:25;99679.91;;;12.47;100.00
21956;BME280;11142;49.930;8.606;2023-02-23T03:00:54;99684.41;;;12.56;100.00
21956;BME280;11142;49.930;8.606;2023-02-23T03:03:41;99676.50;;;12.58;100.00
21956;BME280;11142;49.930;8.606;2023-02-23T03:06:29;99675.66;;;12.57;100.00
21956;BME280;11142;49.930;8.606;2023-02-23T03:09:23;99674.00;;;12.56;100.00
21956;BME280;11142;49.930;8.606;2023-02-23T03:12:15;99675.44;;;12.49;100.00
21956;BME280;11142;49.930;8.606;2023-02-23T03:15:08;99677.09;;;12.39;100.00
21956;BME280;11142;49.930;8.606;2023-02-23T03:17:58;99677.09;;;12.28;100.00
21956;BME280;11142;49.930;8.606;2023-02-23T03:20:46;99673.88;;;12.24;100.00
21956;BME280;11142;49.930;8.606;2023-02-23T03:23:35;99673.53;;;12.29;100.00
21956;BME280;11142;49.930;8.606;2023-02-23T03:26:27;99671.28;;;12.36;100.00
21956;BME280;11142;49.930;8.606;2023-02-23T03:29:18;99678.03;;;12.16;100.00
21956;BME280;11142;49.930;8.606;2023-02-23T03:32:06;99675.56;;;12.14;100.00
21956;BME280;11142;49.930;8.606;2023-02-23T03:34:56;99678.63;;;12.19;100.00
21956;BME280;11142;49.930;8.606;2023-02-23T03:37:47;99674.34;;;12.18;100.00
21956;BME280;11142;49.930;8.606;2023-02-23T03:40:35;99680.06;;;12.23;100.00
21956;BME280;11142;49.930;8.606;2023-02-23T03:43:23;99679.81;;;12.27;100.00
21956;BME280;11142;49.930;8.606;2023-02-23T03:46:11;99679.09;;;12.24;100.00
21956;BME280;11142;49.930;8.606;2023-02-23T03:48:59;99674.72;;;12.25;100.00
21956;BME280;11142;49.930;8.606;2023-02-23T03:51:48;99679.44;;;12.31;100.00
21956;BME280;11142;49.930;8.606;2023-02-23T03:54:36;99673.06;;;12.24;100.00
21956;BME280;11142;49.930;8.606;2023-02-23T03:57:24;99680.97;;;12.00;100.00
21956;BME280;11142;49.930;8.606;2023-02-23T04:00:15;99679.91;;;11.92;100.00
21956;BME280;11142;49.930;8.606;2023-02-23T04:03:02;99679.53;;;11.85;100.00
21956;BME280;11142;49.930;8.606;2023-02-23T04:05:49;99674.41;;;11.73;100.00
21956;BME280;11142;49.930;8.606;2023-02-23T04:08:35;99667.38;;;11.51;100.00
21956;BME280;11142;49.930;8.606;2023-02-23T04:11:23;99670.97;;;11.37;100.00
21956;BME280;11142;49.930;8.606;2023-02-23T04:14:15;99670.25;;;11.35;100.00
21956;BME280;11142;49.930;8.606;2023-02-23T04:16:44;99665.94;;;11.47;100.00
21956;BME280;11142;49.930;8.606;2023-02-23T04:19:12;99671.28;;;11.56;100.00
21956;BME280;11142;49.930;8.606;2023-02-23T04:21:41;99668.66;;;11.56;100.00
21956;BME280;11142;49.930;8.606;2023-02-23T04:24:09;99671.50;;;11.64;100.00
21956;BME280;11142;49.930;8.606;2023-02-23T04:26:38;99673.63;;;11.59;100.00
21956;BME280;11142;49.930;8.606;2023-02-23T04:29:06;99676.84;;;11.63;100.00
21956;BME280;11142;49.930;8.606;2023-02-23T04:31:34;99670.81;;;11.62;100.00
21956;BME280;11142;49.930;8.606;2023-02-23T04:34:04;99674.19;;;11.52;100.00
21956;BME280;11142;49.930;8.606;2023-02-23T04:36:32;99674.84;;;11.32;100.00
21956;BME280;11142;49.930;8.606;2023-02-23T04:39:00;99671.81;;;11.38;100.00
21956;BME280;11142;49.930;8.606;2023-02-23T04:41:28;99673.38;;;11.51;100.00
21956;BME280;11142;49.930;8.606;2023-02-23T04:43:56;99677.75;;;11.51;100.00
21956;BME280;11142;49.930;8.606;2023-02-23T04:46:24;99674.56;;;11.47;100.00
21956;BME280;11142;49.930;8.606;2023-02-23T04:48:52;99671.97;;;11.47;100.00
21956;BME280;11142;49.930;8.606;2023-02-23T04:51:21;99674.94;;;11.54;100.00
21956;BME280;11142;49.930;8.606;2023-02-23T04:53:49;99677.41;;;11.55;100.00
21956;BME280;11142;49.930;8.606;2023-02-23T04:56:18;99679.53;;;11.61;100.00
21956;BME280;11142;49.930;8.606;2023-02-23T04:58:46;99678.13;;;11.57;100.00
21956;BME280;11142;49.930;8.606;2023-02-23T05:01:14;99678.25;;;11.67;100.00
21956;BME280;11142;49.930;8.606;2023-02-23T05:03:43;99681.91;;;11.64;100.00
21956;BME280;11142;49.930;8.606;2023-02-23T05:06:12;99684.09;;;11.70;100.00
21956;BME280;11142;49.930;8.606;2023-02-23T05:08:41;99679.03;;;11.80;100.00
21956;BME280;11142;49.930;8.606;2023-02-23T05:11:11;99681.69;;;11.67;100.00
21956;BME280;11142;49.930;8.606;2023-02-23T05:13:40;99688.47;;;11.70;100.00
21956;BME280;11142;49.930;8.606;2023-02-23T05:16:08;99686.69;;;11.70;100.00
21956;BME280;11142;49.930;8.606;2023-02-23T05:18:37;99686.22;;;11.77;100.00
21956;BME280;11142;49.930;8.606;2023-02-23T05:21:07;99693.13;;;11.89;100.00
21956;BME280;11142;49.930;8.606;2023-02-23T05:23:36;99685.09;;;11.92;100.00
21956;BME280;11142;49.930;8.606;2023-02-23T05:26:07;99696.91;;;11.96;100.00
21956;BME280;11142;49.930;8.606;2023-02-23T05:28:36;99697.41;;;12.01;100.00
21956;BME280;11142;49.930;8.606;2023-02-23T05:31:04;99687.22;;;11.98;100.00
21956;BME280;11142;49.930;8.606;2023-02-23T05:33:33;99688.06;;;12.09;100.00
21956;BME280;11142;49.930;8.606;2023-02-23T05:36:08;99691.38;;;12.11;100.00
21956;BME280;11142;49.930;8.606;2023-02-23T05:38:38;99688.53;;;12.03;100.00
21956;BME280;11142;49.930;8.606;2023-02-23T05:41:08;99685.69;;;12.06;100.00
21956;BME280;11142;49.930;8.606;2023-02-23T05:43:37;99695.97;;;11.97;100.00
21956;BME280;11142;49.930;8.606;2023-02-23T05:46:06;99693.84;;;12.02;100.00
21956;BME280;11142;49.930;8.606;2023-02-23T05:48:35;99689.47;;;11.91;100.00
21956;BME280;11142;49.930;8.606;2023-02-23T05:51:05;99697.03;;;11.94;100.00
21956;BME280;11142;49.930;8.606;2023-02-23T05:53:35;99691.84;;;11.94;100.00
21956;BME280;11142;49.930;8.606;2023-02-23T05:56:04;99695.75;;;12.00;100.00
21956;BME280;11142;49.930;8.606;2023-02-23T05:58:36;99691.38;;;12.00;100.00
21956;BME280;11142;49.930;8.606;2023-02-23T06:01:07;99695.63;;;12.01;100.00
21956;BME280;11142;49.930;8.606;2023-02-23T06:03:35;99690.81;;;12.08;100.00
21956;BME280;11142;49.930;8.606;2023-02-23T06:06:03;99702.13;;;12.07;100.00
21956;BME280;11142;49.930;8.606;2023-02-23T06:08:31;99699.78;;;12.04;100.00
21956;BME280;11142;49.930;8.606;2023-02-23T06:10:59;99700.69;;;12.03;100.00
21956;BME280;11142;49.930;8.606;2023-02-23T06:13:28;99705.31;;;11.99;100.00
21956;BME280;11142;49.930;8.606;2023-02-23T06:15:58;99706.97;;;12.00;100.00
21956;BME280;11142;49.930;8.606;2023-02-23T06:18:27;99698.00;;;12.04;100.00
21956;BME280;11142;49.930;8.606;2023-02-23T06:20:57;99704.38;;;12.11;100.00
21956;BME280;11142;49.930;8.606;2023-02-23T06:23:26;99705.34;;;12.10;100.00
21956;BME280;11142;49.930;8.606;2023-02-23T06:25:54;99704.28;;;12.13;100.00
21956;BME280;11142;49.930;8.606;2023-02-23T06:28:22;99708.88;;;12.09;100.00
21956;BME280;11142;49.930;8.606;2023-02-23T06:30:50;99711.56;;;11.97;100.00
21956;BME280;11142;49.930;8.606;2023-02-23T06:33:20;99709.53;;;11.89;100.00
21956;BME280;11142;49.930;8.606;2023-02-23T06:35:48;99715.09;;;11.85;100.00
21956;BME280;11142;49.930;8.606;2023-02-23T06:38:16;99711.19;;;11.79;100.00
21956;BME280;11142;49.930;8.606;2023-02-23T06:40:44;99709.19;;;11.83;100.00
21956;BME280;11142;49.930;8.606;2023-02-23T06:43:12;99705.28;;;11.88;100.00
21956;BME280;11142;49.930;8.606;2023-02-23T06:45:42;99715.47;;;11.67;100.00
21956;BME280;11142;49.930;8.606;2023-02-23T06:48:10;99715.28;;;11.70;100.00
21956;BME280;11142;49.930;8.606;2023-02-23T06:50:40;99720.91;;;11.64;100.00
21956;BME280;11142;49.930;8.606;2023-02-23T06:53:09;99716.53;;;11.65;100.00
21956;BME280;11142;49.930;8.606;2023-02-23T06:55:38;99722.38;;;11.80;100.00
21956;BME280;11142;49.930;8.606;2023-02-23T06:58:07;99729.78;;;11.97;100.00
21956;BME280;11142;49.930;8.606;2023-02-23T07:00:35;99725.81;;;11.80;100.00
21956;BME280;11142;49.930;8.606;2023-02-23T07:03:08;99733.47;;;11.70;100.00
21956;BME280;11142;49.930;8.606;2023-02-23T07:05:37;99733.28;;;11.85;100.00
21956;BME280;11142;49.930;8.606;2023-02-23T07:08:07;99731.06;;;12.02;100.00
21956;BME280;11142;49.930;8.606;2023-02-23T07:10:35;99738.63;;;11.94;100.00
21956;BME280;11142;49.930;8.606;2023-02-23T07:13:03;99738.13;;;11.78;100.00
21956;BME280;11142;49.930;8.606;2023-02-23T07:15:33;99735.88;;;11.85;100.00
21956;BME280;11142;49.930;8.606;2023-02-23T07:18:01;99740.41;;;11.94;100.00
21956;BME280;11142;49.930;8.606;2023-02-23T07:20:31;99745.66;;;12.05;100.00
21956;BME280;11142;49.930;8.606;2023-02-23T07:23:00;99748.13;;;12.06;100.00
21956;BME280;11142;49.930;8.606;2023-02-23T07:25:30;99745.91;;;11.78;100.00
21956;BME280;11142;49.930;8.606;2023-02-23T07:27:58;99746.44;;;11.94;100.00
21956;BME280;11142;49.930;8.606;2023-02-23T07:30:25;99748.81;;;12.08;100.00
21956;BME280;11142;49.930;8.606;2023-02-23T07:32:53;99747.41;;;12.04;100.00
21956;BME280;11142;49.930;8.606;2023-02-23T07:35:21;99748.44;;;11.91;100.00
21956;BME280;11142;49.930;8.606;2023-02-23T07:37:49;99751.56;;;12.07;100.00
21956;BME280;11142;49.930;8.606;2023-02-23T07:40:17;99748.34;;;12.03;100.00
21956;BME280;11142;49.930;8.606;2023-02-23T07:42:47;99751.22;;;12.34;100.00
21956;BME280;11142;49.930;8.606;2023-02-23T07:45:15;99755.25;;;12.38;100.00
21956;BME280;11142;49.930;8.606;2023-02-23T07:47:43;99759.41;;;12.29;100.00
21956;BME280;11142;49.930;8.606;2023-02-23T07:50:12;99752.19;;;12.33;100.00
21956;BME280;11142;49.930;8.606;2023-02-23T07:52:40;99758.59;;;12.51;100.00
21956;BME280;11142;49.930;8.606;2023-02-23T07:55:16;99761.56;;;12.57;100.00
21956;BME280;11142;49.930;8.606;2023-02-23T07:57:44;99761.19;;;12.51;100.00
21956;BME280;11142;49.930;8.606;2023-02-23T08:00:14;99756.56;;;12.65;100.00
21956;BME280;11142;49.930;8.606;2023-02-23T08:02:42;99762.13;;;12.94;100.00
21956;BME280;11142;49.930;8.606;2023-02-23T08:05:10;99767.91;;;13.31;100.00
21956;BME280;11142;49.930;8.606;2023-02-23T08:07:39;99772.81;;;13.56;100.00
21956;BME280;11142;49.930;8.606;2023-02-23T08:10:10;99771.34;;;13.95;100.00
21956;BME280;11142;49.930;8.606;2023-02-23T08:12:38;99777.50;;;14.15;100.00
21956;BME280;11142;49.930;8.606;2023-02-23T08:15:06;99780.53;;;14.10;100.00
21956;BME280;11142;49.930;8.606;2023-02-23T08:17:36;99787.22;;;13.92;100.00
21956;BME280;11142;49.930;8.606;2023-02-23T08:20:06;99787.63;;;14.08;100.00
21956;BME280;11142;49.930;8.606;2023-02-23T08:22:34;99791.19;;;14.39;100.00
21956;BME280;11142;49.930;8.606;2023-02-23T08:25:16;99791.06;;;14.09;100.00
21956;BME280;11142;49.930;8.606;2023-02-23T08:27:44;99787.88;;;13.42;100.00
21956;BME280;11142;49.930;8.606;2023-02-23T08:30:14;99791.66;;;13.60;100.00
21956;BME280;11142;49.930;8.606;2023-02-23T08:32:46;99789.22;;;13.36;100.00
21956;BME280;11142;49.930;8.606;2023-02-23T08:35:14;99783.25;;;13.45;100.00
21956;BME280;11142;49.930;8.606;2023-02-23T08:37:42;99794.13;;;13.61;100.00
21956;BME280;11142;49.930;8.606;2023-02-23T08:40:11;99789.66;;;13.52;100.00
21956;BME280;11142;49.930;8.606;2023-02-23T08:42:41;99795.22;;;13.48;100.00
21956;BME280;11142;49.930;8.606;2023-02-23T08:45:10;99796.03;;;13.59;100.00
21956;BME280;11142;49.930;8.606;2023-02-23T08:47:40;99791.31;;;13.53;100.00
21956;BME280;11142;49.930;8.606;2023-02-23T08:50:11;99797.97;;;13.46;100.00
21956;BME280;11142;49.930;8.606;2023-02-23T08:52:40;99798.00;;;13.67;100.00
21956;BME280;11142;49.930;8.606;2023-02-23T08:55:09;99799.91;;;13.65;100.00
21956;BME280;11142;49.930;8.606;2023-02-23T08:57:39;99805.03;;;13.66;100.00
21956;BME280;11142;49.930;8.606;2023-02-23T09:00:08;99808.19;;;14.02;100.00
21956;BME280;11142;49.930;8.606;2023-02-23T09:02:41;99804.06;;;14.20;100.00
21956;BME280;11142;49.930;8.606;2023-02-23T09:05:11;99807.91;;;14.57;100.00
21956;BME280;11142;49.930;8.606;2023-02-23T09:07:41;99816.47;;;14.69;100.00
21956;BME280;11142;49.930;8.606;2023-02-23T09:10:12;99812.19;;;14.58;100.00
21956;BME280;11142;49.930;8.606;2023-02-23T09:12:41;99812.28;;;14.15;100.00
21956;BME280;11142;49.930;8.606;2023-02-23T09:15:10;99819.06;;;14.27;100.00
21956;BME280;11142;49.930;8.606;2023-02-23T09:17:38;99821.84;;;14.26;100.00
21956;BME280;11142;49.930;8.606;2023-02-23T09:20:09;99823.22;;;14.09;100.00
21956;BME280;11142;49.930;8.606;2023-02-23T09:22:40;99818.72;;;14.53;100.00
21956;BME280;11142;49.930;8.606;2023-02-23T09:25:14;99823.09;;;15.03;100.00
21956;BME280;11142;49.930;8.606;2023-02-23T09:27:43;99822.03;;;15.06;100.00
21956;BME280;11142;49.930;8.606;2023-02-23T09:30:11;99825.47;;;15.06;100.00
21956;BME280;11142;49.930;8.606;2023-02-23T09:32:43;99825.47;;;15.56;100.00
21956;BME280;11142;49.930;8.606;2023-02-23T09:35:12;99838.03;;;15.81;100.00
21956;BME280;11142;49.930;8.606;2023-02-23T09:37:47;99828.69;;;15.88;100.00
21956;BME280;11142;49.930;8.606;2023-02-23T09:40:16;99829.88;;;15.55;100.00
21956;BME280;11142;49.930;8.606;2023-02-23T09:42:47;99833.91;;;15.88;100.00
21956;BME280;11142;49.930;8.606;2023-02-23T09:45:24;99837.03;;;15.53;100.00
21956;BME280;11142;49.930;8.606;2023-02-23T09:48:07;99837.47;;;15.77;100.00
21956;BME280;11142;49.930;8.606;2023-02-23T09:50:37;99839.84;;;15.31;100.00
21956;BME280;11142;49.930;8.606;2023-02-23T09:53:11;99839.47;;;15.45;100.00
21956;BME280;11142;49.930;8.606;2023-02-23T09:55:42;99832.91;;;15.51;100.00
21956;BME280;11142;49.930;8.606;2023-02-23T09:58:20;99838.31;;;15.68;100.00
21956;BME280;11142;49.930;8.606;2023-02-23T10:00:53;99838.88;;;16.01;100.00
21956;BME280;11142;49.930;8.606;2023-02-23T10:03:26;99839.88;;;16.84;100.00
21956;BME280;11142;49.930;8.606;2023-02-23T10:05:58;99848.00;;;17.73;100.00
21956;BME280;11142;49.930;8.606;2023-02-23T10:08:34;99846.81;;;18.38;100.00
21956;BME280;11142;49.930;8.606;2023-02-23T10:11:12;99847.50;;;18.91;100.00
21956;BME280;11142;49.930;8.606;2023-02-23T10:13:45;99856.22;;;19.26;100.00
21956;BME280;11142;49.930;8.606;2023-02-23T10:16:18;99851.84;;;18.75;97.00
21956;BME280;11142;49.930;8.606;2023-02-23T10:18:51;99856.94;;;18.50;100.00
21956;BME280;11142;49.930;8.606;2023-02-23T10:21:25;99857.09;;;18.31;100.00
21956;BME280;11142;49.930;8.606;2023-02-23T10:23:59;99851.84;;;17.96;100.00
21956;BME280;11142;49.930;8.606;2023-02-23T10:26:32;99861.59;;;17.86;100.00
21956;BME280;11142;49.930;8.606;2023-02-23T10:29:02;99855.31;;;16.87;100.00
21956;BME280;11142;49.930;8.606;2023-02-23T10:31:32;99861.22;;;16.99;100.00
21956;BME280;11142;49.930;8.606;2023-02-23T10:34:02;99859.66;;;16.60;100.00
21956;BME280;11142;49.930;8.606;2023-02-23T10:36:34;99858.22;;;16.84;100.00
21956;BME280;11142;49.930;8.606;2023-02-23T10:39:05;99853.78;;;17.31;100.00
21956;BME280;11142;49.930;8.606;2023-02-23T10:41:34;99858.69;;;17.07;100.00
21956;BME280;11142;49.930;8.606;2023-02-23T10:44:21;99854.03;;;16.55;100.00
21956;BME280;11142;49.930;8.606;2023-02-23T10:46:50;99860.03;;;17.21;100.00
21956;BME280;11142;49.930;8.606;2023-02-23T10:49:21;99855.38;;;18.22;100.00
21956;BME280;11142;49.930;8.606;2023-02-23T10:51:51;99851.56;;;19.12;98.23
21956;BME280;11142;49.930;8.606;2023-02-23T10:54:43;99859.00;;;19.50;88.49
21956;BME280;11142;49.930;8.606;2023-02-23T10:57:22;99865.38;;;19.97;82.99
21956;BME280;11142;49.930;8.606;2023-02-23T10:59:58;99868.03;;;20.13;86.64
21956;BME280;11142;49.930;8.606;2023-02-23T11:02:27;99871.25;;;19.83;85.34
21956;BME280;11142;49.930;8.606;2023-02-23T11:04:59;99866.97;;;19.82;84.83
21956;BME280;11142;49.930;8.606;2023-02-23T11:07:29;99859.22;;;19.81;85.60
21956;BME280;11142;49.930;8.606;2023-02-23T11:12:47;99866.19;;;17.66;95.88
21956;BME280;11142;49.930;8.606;2023-02-23T11:15:25;99862.34;;;17.51;100.00
21956;BME280;11142;49.930;8.606;2023-02-23T11:18:18;99853.97;;;17.75;100.00
21956;BME280;11142;49.930;8.606;2023-02-23T11:20:47;99854.28;;;18.07;100.00
21956;BME280;11142;49.930;8.606;2023-02-23T11:23:19;99855.69;;;18.80;99.00
21956;BME280;11142;49.930;8.606;2023-02-23T11:25:55;99851.75;;;19.52;91.23
21956;BME280;11142;49.930;8.606;2023-02-23T11:28:29;99857.50;;;17.29;100.00
21956;BME280;11142;49.930;8.606;2023-02-23T11:31:01;99846.13;;;15.59;100.00
21956;BME280;11142;49.930;8.606;2023-02-23T11:33:32;99846.81;;;15.61;100.00
21956;BME280;11142;49.930;8.606;2023-02-23T11:36:17;99847.59;;;15.02;100.00
21956;BME280;11142;49.930;8.606;2023-02-23T11:39:00;99833.28;;;14.14;100.00
21956;BME280;11142;49.930;8.606;2023-02-23T11:41:28;99830.66;;;13.39;100.00
21956;BME280;11142;49.930;8.606;2023-02-23T11:44:00;99835.06;;;14.13;100.00
21956;BME280;11142;49.930;8.606;2023-02-23T11:46:34;99826.47;;;14.22;100.00
21956;BME280;11142;49.930;8.606;2023-02-23T11:49:04;99831.97;;;13.88;100.00
21956;BME280;11142;49.930;8.606;2023-02-23T11:51:35;99840.38;;;17.52;100.00
21956;BME280;11142;49.930;8.606;2023-02-23T11:54:05;99841.88;;;21.15;67.57
21956;BME280;11142;49.930;8.606;2023-02-23T11:56:37;99843.06;;;23.74;49.45
21956;BME280;11142;49.930;8.606;2023-02-23T11:59:14;99843.56;;;27.41;39.70
21956;BME280;11142;49.930;8.606;2023-02-23T12:01:47;99851.22;;;28.63;34.83
21956;BME280;11142;49.930;8.606;2023-02-23T12:04:24;99840.38;;;25.21;44.14
21956;BME280;11142;49.930;8.606;2023-02-23T12:07:19;99840.19;;;23.55;45.93
21956;BME280;11142;49.930;8.606;2023-02-23T12:09:46;99834.28;;;21.04;55.75
21956;BME280;11142;49.930;8.606;2023-02-23T12:12:16;99831.25;;;21.62;62.12
21956;BME280;11142;49.930;8.606;2023-02-23T12:14:48;99826.09;;;23.90;58.14
21956;BME280;11142;49.930;8.606;2023-02-23T12:17:20;99834.03;;;25.70;44.61
21956;BME280;11142;49.930;8.606;2023-02-23T12:19:54;99828.78;;;25.29;47.98
21956;BME280;11142;49.930;8.606;2023-02-23T12:22:26;99814.63;;;23.83;51.76
21956;BME280;11142;49.930;8.606;2023-02-23T12:24:58;99812.16;;;22.43;56.60
21956;BME280;11142;49.930;8.606;2023-02-23T12:27:28;99810.66;;;21.19;60.27
21956;BME280;11142;49.930;8.606;2023-02-23T12:30:03;99808.66;;;17.45;77.67
21956;BME280;11142;49.930;8.606;2023-02-23T12:32:38;99804.00;;;16.19;100.00
21956;BME280;11142;49.930;8.606;2023-02-23T12:35:12;99800.97;;;15.95;100.00
21956;BME280;11142;49.930;8.606;2023-02-23T12:37:44;99800.75;;;14.59;100.00
21956;BME280;11142;49.930;8.606;2023-02-23T12:40:17;99789.97;;;14.11;100.00
21956;BME280;11142;49.930;8.606;2023-02-23T12:42:49;99793.59;;;13.99;100.00
21956;BME280;11142;49.930;8.606;2023-02-23T12:45:22;99794.88;;;13.84;100.00
21956;BME280;11142;49.930;8.606;2023-02-23T12:47:55;99784.94;;;13.99;100.00
21956;BME280;11142;49.930;8.606;2023-02-23T12:50:27;99783.34;;;14.39;100.00
21956;BME280;11142;49.930;8.606;2023-02-23T12:53:00;99795.28;;;14.93;100.00
21956;BME280;11142;49.930;8.606;2023-02-23T12:55:33;99786.66;;;14.71;100.00
21956;BME280;11142;49.930;8.606;2023-02-23T12:58:07;99787.13;;;14.14;100.00
21956;BME280;11142;49.930;8.606;2023-02-23T13:00:45;99782.34;;;13.99;100.00
21956;BME280;11142;49.930;8.606;2023-02-23T13:06:09;99783.50;;;14.06;100.00
21956;BME280;11142;49.930;8.606;2023-02-23T13:08:44;99777.41;;;14.37;100.00
21956;BME280;11142;49.930;8.606;2023-02-23T13:11:19;99777.69;;;14.95;100.00
21956;BME280;11142;49.930;8.606;2023-02-23T13:13:53;99783.44;;;14.88;100.00
21956;BME280;11142;49.930;8.606;2023-02-23T13:16:27;99782.25;;;14.72;100.00
21956;BME280;11142;49.930;8.606;2023-02-23T13:18:58;99780.91;;;14.47;100.00
21956;BME280;11142;49.930;8.606;2023-02-23T13:21:32;99783.34;;;14.69;100.00
21956;BME280;11142;49.930;8.606;2023-02-23T13:24:03;99778.91;;;14.19;100.00
21956;BME280;11142;49.930;8.606;2023-02-23T13:26:38;99773.06;;;14.26;100.00
21956;BME280;11142;49.930;8.606;2023-02-23T13:29:12;99776.50;;;14.06;100.00
21956;BME280;11142;49.930;8.606;2023-02-23T13:31:47;99781.41;;;14.20;100.00